Time;durP1;ratioP1;P1;durP2;ratioP2;P2;SDS_P1;SDS_P2;PMS_P1;PMS_P2;Temp;Humidity;BMP_temperature;BMP_pressure;BME280_temperature;BME280_humidity;BME280_pressure;Samples;Min_cycle;Max_cycle;Signal;HPM_P1;HPM_P2
2022/03/12 00:00:31;;;;;;;10.73;6.20;;;7.10;52.60;;;;;;5051448;28;20047;-69
2022/03/12 00:02:57;;;;;;;11.95;6.18;;;7.10;53.70;;;;;;5050455;28;20090;-69
2022/03/12 00:05:26;;;;;;;13.25;6.65;;;7.10;53.10;;;;;;5051044;28;20115;-69
2022/03/12 00:07:52;;;;;;;12.65;5.95;;;7.10;53.80;;;;;;5050913;28;20508;-70
2022/03/12 00:10:22;;;;;;;12.85;6.85;;;7.10;53.10;;;;;;5051062;28;20045;-69
2022/03/12 00:12:48;;;;;;;9.98;6.43;;;7.10;53.90;;;;;;5050218;28;20048;-69
2022/03/12 00:15:14;;;;;;;9.80;6.57;;;7.10;54.00;;;;;;5048082;28;20045;-69
2022/03/12 00:17:44;;;;;;;10.95;7.22;;;7.00;54.20;;;;;;5049655;28;20437;-69
2022/03/12 00:20:12;;;;;;;9.57;5.97;;;7.00;54.00;;;;;;5050731;28;20052;-68
2022/03/12 00:22:46;;;;;;;10.07;5.95;;;7.00;53.70;;;;;;5048261;28;20051;-68
2022/03/12 00:25:18;;;;;;;10.45;6.20;;;6.90;53.40;;;;;;5050679;28;20033;-69
2022/03/12 00:27:44;;;;;;;11.27;6.50;;;6.90;54.30;;;;;;5049422;28;20045;-68
2022/03/12 00:30:10;;;;;;;10.38;6.72;;;7.00;54.90;;;;;;5050233;28;20048;-68
2022/03/12 00:32:37;;;;;;;9.80;5.70;;;7.00;53.80;;;;;;5049518;28;20048;-68
2022/03/12 00:35:08;;;;;;;10.30;6.28;;;6.90;53.60;;;;;;5050407;28;20037;-69
2022/03/12 00:37:34;;;;;;;9.63;6.60;;;7.00;54.00;;;;;;5050376;28;20062;-69
2022/03/12 00:40:01;;;;;;;16.08;6.38;;;7.00;53.90;;;;;;5050159;28;20799;-68
2022/03/12 00:42:26;;;;;;;11.40;6.13;;;7.00;54.30;;;;;;5049372;28;20041;-69
2022/03/12 00:44:52;;;;;;;11.55;6.47;;;7.00;53.80;;;;;;5049544;28;20037;-68
2022/03/12 00:47:18;;;;;;;11.13;6.03;;;7.00;53.90;;;;;;5050238;28;20040;-69
2022/03/12 00:49:45;;;;;;;10.82;6.30;;;7.00;53.70;;;;;;5050234;28;20508;-69
2022/03/12 00:52:11;;;;;;;16.38;6.82;;;7.00;52.80;;;;;;5049148;28;20033;-68
2022/03/12 00:54:36;;;;;;;11.38;6.25;;;7.00;53.60;;;;;;5050181;28;20521;-69
2022/03/12 00:57:02;;;;;;;10.93;6.18;;;7.00;53.60;;;;;;5051864;28;20584;-68
2022/03/12 00:59:28;;;;;;;7.82;5.70;;;7.00;53.80;;;;;;5052734;28;20447;-69
2022/03/12 01:01:54;;;;;;;11.15;6.75;;;6.90;53.90;;;;;;5053938;28;20071;-68
2022/03/12 01:04:19;;;;;;;16.23;6.43;;;7.00;54.00;;;;;;5054446;28;20094;-69
2022/03/12 01:06:46;;;;;;;11.20;6.30;;;7.00;54.40;;;;;;5050174;28;20031;-69
2022/03/12 01:09:13;;;;;;;9.77;6.80;;;6.90;54.50;;;;;;5050093;28;20041;-70
2022/03/12 01:11:40;;;;;;;15.38;6.47;;;6.90;54.40;;;;;;5049419;28;20048;-70
2022/03/12 01:14:07;;;;;;;9.43;6.15;;;6.90;54.50;;;;;;5050062;28;20048;-70
2022/03/12 01:16:33;;;;;;;12.93;6.22;;;6.90;54.40;;;;;;5058863;28;20084;-71
2022/03/12 01:18:59;;;;;;;10.25;6.55;;;6.90;54.40;;;;;;5075554;28;20033;-70
2022/03/12 01:21:26;;;;;;;11.88;7.20;;;6.90;54.20;;;;;;5068999;28;20057;-70
2022/03/12 01:23:51;;;;;;;10.00;6.10;;;6.90;53.80;;;;;;5049363;28;20077;-70
2022/03/12 01:26:19;;;;;;;11.93;6.68;;;6.90;54.40;;;;;;5049932;28;20079;-70
2022/03/12 01:28:45;;;;;;;10.95;6.80;;;6.90;54.60;;;;;;5048380;28;20068;-70
2022/03/12 01:31:11;;;;;;;13.85;7.00;;;6.90;53.30;;;;;;5050069;28;20358;-70
2022/03/12 01:33:37;;;;;;;11.02;6.15;;;7.00;53.80;;;;;;5049028;28;20048;-70
2022/03/12 01:36:04;;;;;;;10.80;6.15;;;7.00;53.30;;;;;;5049921;28;20358;-70
2022/03/12 01:38:35;;;;;;;9.48;6.03;;;7.00;53.10;;;;;;5048578;28;20036;-70
2022/03/12 01:41:04;;;;;;;15.45;6.85;;;7.00;53.70;;;;;;5050117;28;20033;-70
2022/03/12 01:43:32;;;;;;;11.73;6.43;;;7.00;53.20;;;;;;5049129;28;20501;-70
2022/03/12 01:46:01;;;;;;;12.98;6.55;;;7.00;53.80;;;;;;5048367;28;20047;-70
2022/03/12 01:48:30;;;;;;;9.68;6.40;;;7.00;53.40;;;;;;5049690;28;20040;-70
2022/03/12 01:50:56;;;;;;;11.85;6.18;;;7.00;53.60;;;;;;5049483;28;20080;-70
2022/03/12 01:53:26;;;;;;;9.13;6.00;;;6.90;53.50;;;;;;5047716;28;20041;-70
2022/03/12 01:55:53;;;;;;;14.77;6.55;;;6.90;54.00;;;;;;5050545;28;20037;-70
2022/03/12 01:58:19;;;;;;;10.73;6.72;;;7.00;53.80;;;;;;5053268;28;20053;-70
2022/03/12 02:00:49;;;;;;;13.18;6.78;;;7.00;53.70;;;;;;5053234;28;20041;-70
2022/03/12 02:03:17;;;;;;;14.02;6.40;;;7.00;54.00;;;;;;5052551;28;20037;-70
2022/03/12 02:05:43;;;;;;;9.30;6.05;;;6.90;53.60;;;;;;5052932;28;20037;-69
2022/03/12 02:08:14;;;;;;;11.18;6.32;;;6.90;53.70;;;;;;5053077;28;20163;-70
2022/03/12 02:10:41;;;;;;;11.88;6.57;;;6.90;53.30;;;;;;5053121;28;20045;-70
2022/03/12 02:13:07;;;;;;;9.48;6.00;;;6.90;54.30;;;;;;5034883;28;20045;-70
2022/03/12 02:15:33;;;;;;;14.43;6.85;;;6.90;53.60;;;;;;5054511;28;20671;-70
2022/03/12 02:17:59;;;;;;;10.13;5.95;;;6.80;54.40;;;;;;5052784;28;20065;-70
2022/03/12 02:20:24;;;;;;;12.82;7.05;;;6.90;54.00;;;;;;5052975;28;20052;-70
2022/03/12 02:22:53;;;;;;;12.93;6.53;;;6.80;54.00;;;;;;5053433;28;20056;-70
2022/03/12 02:25:28;;;;;;;10.98;6.57;;;6.80;54.70;;;;;;5057253;28;20413;-70
2022/03/12 02:27:56;;;;;;;10.50;6.25;;;6.80;54.90;;;;;;5055039;28;20041;-70
2022/03/12 02:30:23;;;;;;;9.63;5.97;;;6.80;54.40;;;;;;5053715;28;20044;-70
2022/03/12 02:32:58;;;;;;;13.00;6.70;;;6.80;54.00;;;;;;5051815;28;20091;-70
2022/03/12 02:35:24;;;;;;;16.25;6.40;;;6.80;54.20;;;;;;5052951;28;20132;-70
2022/03/12 02:37:52;;;;;;;9.52;6.60;;;6.80;54.50;;;;;;5051353;28;20112;-69
2022/03/12 02:40:18;;;;;;;12.93;6.60;;;6.70;54.60;;;;;;5052507;28;20118;-69
2022/03/12 02:42:46;;;;;;;8.55;6.35;;;6.80;54.70;;;;;;5052644;28;20029;-70
2022/03/12 02:45:11;;;;;;;12.95;6.53;;;6.80;55.70;;;;;;5055042;28;20041;-70
2022/03/12 02:47:41;;;;;;;15.95;6.95;;;6.80;55.80;;;;;;5064271;28;20551;-70
2022/03/12 02:50:08;;;;;;;11.18;6.00;;;6.70;55.10;;;;;;5079073;28;20071;-70
2022/03/12 02:52:41;;;;;;;11.43;6.70;;;6.70;55.40;;;;;;5077291;28;20051;-71
2022/03/12 02:55:09;;;;;;;13.73;7.00;;;6.70;55.40;;;;;;5053837;28;20048;-70
2022/03/12 02:57:35;;;;;;;11.52;6.80;;;6.70;54.90;;;;;;5052255;28;20036;-69
2022/03/12 03:00:06;;;;;;;15.82;6.80;;;6.70;54.90;;;;;;5052050;28;20047;-70
2022/03/12 03:02:39;;;;;;;9.57;6.22;;;6.70;55.10;;;;;;5051538;28;20047;-70
2022/03/12 03:05:16;;;;;;;9.88;6.13;;;6.70;54.80;;;;;;5052238;28;20565;-70
2022/03/12 03:07:45;;;;;;;11.90;6.80;;;6.60;54.70;;;;;;5050047;28;20037;-70
2022/03/12 03:10:28;;;;;;;14.73;7.15;;;6.70;55.40;;;;;;5051922;28;20059;-70
2022/03/12 03:12:54;;;;;;;10.63;6.70;;;6.70;55.00;;;;;;5051506;28;20103;-70
2022/03/12 03:15:19;;;;;;;11.90;5.88;;;6.60;54.70;;;;;;5052129;28;20494;-70
2022/03/12 03:17:45;;;;;;;10.77;6.43;;;6.60;55.20;;;;;;5051796;28;20056;-70
2022/03/12 03:20:12;;;;;;;9.35;6.32;;;6.60;56.00;;;;;;5051688;28;20044;-70
2022/03/12 03:22:37;;;;;;;11.63;6.30;;;6.60;54.60;;;;;;5050895;28;20037;-70
2022/03/12 03:25:03;;;;;;;11.18;6.70;;;6.60;55.30;;;;;;5051789;28;20098;-70
2022/03/12 03:27:28;;;;;;;14.43;6.53;;;6.60;55.60;;;;;;5051776;28;20128;-70
2022/03/12 03:29:54;;;;;;;8.70;6.15;;;6.60;56.10;;;;;;5048660;28;20041;-70
2022/03/12 03:32:20;;;;;;;9.30;5.93;;;6.60;54.90;;;;;;5049908;28;20124;-70
2022/03/12 03:34:45;;;;;;;10.60;6.22;;;6.50;55.40;;;;;;5054598;28;20037;-70
2022/03/12 03:37:11;;;;;;;11.73;6.82;;;6.50;55.90;;;;;;5053086;28;20048;-70
2022/03/12 03:39:40;;;;;;;9.95;6.57;;;6.50;55.30;;;;;;5051468;28;20045;-70
2022/03/12 03:42:06;;;;;;;10.43;6.95;;;6.50;56.10;;;;;;5050608;28;20040;-70
2022/03/12 03:44:31;;;;;;;12.93;7.18;;;6.50;56.00;;;;;;5049853;28;20036;-70
2022/03/12 03:46:58;;;;;;;9.25;6.18;;;6.50;56.70;;;;;;5050269;28;20048;-70
2022/03/12 03:49:24;;;;;;;12.15;7.03;;;6.40;56.40;;;;;;5050646;28;20076;-70
2022/03/12 03:51:51;;;;;;;13.23;7.20;;;6.40;56.40;;;;;;5056323;28;20049;-71
2022/03/12 03:54:17;;;;;;;9.27;6.10;;;6.40;56.70;;;;;;5055637;28;20048;-70
2022/03/12 03:56:43;;;;;;;13.77;7.25;;;6.40;56.60;;;;;;5051287;28;20037;-70
2022/03/12 03:59:09;;;;;;;9.98;6.07;;;6.30;57.40;;;;;;5051119;28;20067;-70
2022/03/12 04:01:40;;;;;;;13.88;7.82;;;6.30;57.50;;;;;;5050640;28;20412;-70
2022/03/12 04:04:07;;;;;;;13.65;6.65;;;6.30;57.90;;;;;;5049532;28;20084;-70
2022/03/12 04:06:32;;;;;;;12.65;7.00;;;6.30;57.60;;;;;;5049546;28;20052;-70
2022/03/12 04:08:58;;;;;;;12.07;6.57;;;6.30;58.90;;;;;;5050825;28;20041;-70
2022/03/12 04:11:25;;;;;;;12.73;7.38;;;6.30;58.20;;;;;;5050956;28;20057;-70
2022/03/12 04:13:52;;;;;;;13.60;6.72;;;6.40;58.20;;;;;;5050011;28;20040;-70
2022/03/12 04:16:19;;;;;;;11.82;7.10;;;6.30;58.90;;;;;;5050931;28;20120;-70
2022/03/12 04:18:46;;;;;;;11.82;6.93;;;6.30;59.30;;;;;;5049681;28;20474;-70
2022/03/12 04:21:17;;;;;;;11.55;6.07;;;6.20;58.30;;;;;;5058890;28;20025;-71
2022/03/12 04:23:45;;;;;;;12.45;6.82;;;6.20;59.50;;;;;;5076529;28;20025;-71
2022/03/12 04:26:11;;;;;;;13.52;6.28;;;6.20;59.40;;;;;;5070898;28;20049;-70
2022/03/12 04:28:37;;;;;;;13.00;7.07;;;6.20;59.80;;;;;;5049725;28;20047;-70
2022/03/12 04:31:05;;;;;;;10.88;7.03;;;6.20;58.80;;;;;;5049144;28;20516;-70
2022/03/12 04:33:31;;;;;;;11.93;6.88;;;6.20;58.60;;;;;;5048546;28;20397;-70
2022/03/12 04:35:58;;;;;;;11.35;6.78;;;6.20;58.90;;;;;;5050165;28;20032;-70
2022/03/12 04:38:25;;;;;;;12.88;6.25;;;6.20;59.70;;;;;;5048790;28;20517;-70
2022/03/12 04:40:52;;;;;;;10.95;6.75;;;6.20;58.60;;;;;;5048813;28;20098;-70
2022/03/12 04:43:17;;;;;;;13.82;6.68;;;6.20;59.50;;;;;;5047684;28;20641;-70
2022/03/12 04:45:45;;;;;;;9.70;6.10;;;6.10;59.10;;;;;;5050392;28;20112;-70
2022/03/12 04:48:13;;;;;;;11.13;6.68;;;6.10;58.80;;;;;;5050252;28;20040;-70
2022/03/12 04:50:39;;;;;;;9.30;6.57;;;6.10;58.90;;;;;;5050152;28;20051;-70
2022/03/12 04:53:04;;;;;;;9.43;6.63;;;6.10;59.70;;;;;;5051787;28;20041;-70
2022/03/12 04:55:36;;;;;;;11.43;6.75;;;6.10;59.50;;;;;;5054168;28;20154;-70
2022/03/12 04:58:05;;;;;;;11.38;7.05;;;6.10;61.30;;;;;;5049028;28;20144;-70
2022/03/12 05:00:32;;;;;;;11.88;6.88;;;6.00;61.00;;;;;;5050166;28;20473;-70
2022/03/12 05:03:08;;;;;;;10.23;6.82;;;6.00;64.00;;;;;;5049209;28;20071;-70
2022/03/12 05:05:39;;;;;;;10.23;6.63;;;6.00;61.40;;;;;;5050152;28;20033;-70
2022/03/12 05:08:10;;;;;;;15.68;7.20;;;5.90;61.90;;;;;;5050163;28;20147;-69
2022/03/12 05:10:36;;;;;;;11.57;6.70;;;5.90;66.00;;;;;;5050242;28;20048;-69
2022/03/12 05:13:02;;;;;;;14.15;7.22;;;5.80;63.50;;;;;;5049447;28;20037;-69
2022/03/12 05:15:32;;;;;;;10.50;6.25;;;5.80;62.40;;;;;;5050210;28;20055;-70
2022/03/12 05:17:58;;;;;;;12.73;7.00;;;5.80;61.80;;;;;;5051439;28;20048;-70
2022/03/12 05:20:27;;;;;;;13.40;7.18;;;5.80;63.80;;;;;;5053673;28;20052;-70
2022/03/12 05:22:53;;;;;;;11.57;7.22;;;5.80;64.30;;;;;;5034825;28;20029;-70
2022/03/12 05:25:19;;;;;;;12.75;6.85;;;5.70;65.50;;;;;;5048980;28;20638;-69
2022/03/12 05:27:53;;;;;;;12.07;6.88;;;5.70;65.30;;;;;;5031305;28;20029;-70
2022/03/12 05:30:21;;;;;;;12.60;6.88;;;5.60;65.70;;;;;;5048316;28;20049;-69
2022/03/12 05:32:48;;;;;;;10.82;6.82;;;5.60;68.00;;;;;;5051614;28;20070;-70
2022/03/12 05:35:15;;;;;;;15.27;6.60;;;5.60;64.60;;;;;;5052416;28;20045;-69
2022/03/12 05:37:41;;;;;;;9.85;6.53;;;5.60;65.40;;;;;;5052442;28;20498;-69
2022/03/12 05:40:09;;;;;;;13.05;7.10;;;5.60;64.70;;;;;;5053782;28;20033;-69
2022/03/12 05:42:35;;;;;;;11.70;6.47;;;5.60;68.70;;;;;;5053032;28;20068;-70
2022/03/12 05:45:09;;;;;;;11.20;6.47;;;5.50;69.70;;;;;;5053920;28;20037;-69
2022/03/12 05:47:38;;;;;;;10.85;6.47;;;5.60;68.60;;;;;;5053674;28;20044;-69
2022/03/12 05:50:08;;;;;;;11.52;5.82;;;5.50;67.30;;;;;;5053587;28;20045;-69
2022/03/12 05:52:34;;;;;;;14.93;7.80;;;5.60;66.30;;;;;;5053259;28;20126;-70
2022/03/12 05:55:02;;;;;;;13.07;6.63;;;5.60;66.00;;;;;;5063395;28;20037;-70
2022/03/12 05:57:29;;;;;;;10.63;6.40;;;5.60;66.70;;;;;;5079481;28;20217;-70
2022/03/12 05:59:54;;;;;;;16.65;7.25;;;5.60;68.50;;;;;;5072916;28;20041;-69
2022/03/12 06:02:20;;;;;;;11.23;6.32;;;5.60;71.70;;;;;;5050478;28;20114;-70
2022/03/12 06:04:46;;;;;;;10.50;6.45;;;5.60;65.60;;;;;;5050537;28;20074;-70
2022/03/12 06:07:12;;;;;;;9.63;6.20;;;5.70;68.90;;;;;;5053229;28;20040;-69
2022/03/12 06:09:38;;;;;;;13.38;6.70;;;5.70;68.50;;;;;;5053337;28;20040;-69
2022/03/12 06:12:07;;;;;;;15.88;7.38;;;5.70;66.80;;;;;;5055088;28;20033;-70
2022/03/12 06:14:40;;;;;;;13.85;6.68;;;5.70;65.50;;;;;;5052361;28;20037;-70
2022/03/12 06:17:06;;;;;;;13.93;6.78;;;5.70;66.20;;;;;;5047858;28;20029;-69
2022/03/12 06:19:31;;;;;;;11.85;6.10;;;5.70;67.30;;;;;;5052999;28;20041;-69
2022/03/12 06:21:57;;;;;;;10.63;6.18;;;5.70;68.30;;;;;;5050197;28;20033;-69
2022/03/12 06:24:23;;;;;;;12.30;7.20;;;5.70;66.10;;;;;;5053229;28;20091;-70
2022/03/12 06:26:48;;;;;;;13.63;6.47;;;5.70;67.30;;;;;;5052667;28;20064;-70
2022/03/12 06:29:14;;;;;;;17.45;6.93;;;5.70;70.60;;;;;;5047776;28;20482;-70
2022/03/12 06:31:41;;;;;;;9.30;6.32;;;5.70;70.10;;;;;;5050368;28;20120;-70
2022/03/12 06:34:09;;;;;;;10.50;7.00;;;5.70;73.60;;;;;;5032474;28;20077;-70
2022/03/12 06:36:35;;;;;;;10.40;6.15;;;5.70;70.40;;;;;;5050957;28;20132;-70
2022/03/12 06:39:01;;;;;;;15.00;6.85;;;5.70;74.40;;;;;;5051255;28;20124;-70
2022/03/12 06:41:27;;;;;;;12.02;6.38;;;5.70;75.70;;;;;;5052931;28;20037;-70
2022/03/12 06:43:53;;;;;;;11.93;6.72;;;5.70;84.70;;;;;;5052715;28;20135;-70
2022/03/12 06:46:20;;;;;;;14.20;6.78;;;5.70;80.70;;;;;;5056261;28;20734;-70
2022/03/12 06:48:45;;;;;;;12.10;7.57;;;5.70;77.60;;;;;;5055563;28;20051;-70
2022/03/12 06:51:11;;;;;;;13.90;6.43;;;5.80;80.40;;;;;;5052505;28;20060;-70
2022/03/12 06:53:38;;;;;;;10.27;6.28;;;5.70;79.80;;;;;;5050298;28;20087;-70
2022/03/12 06:56:04;;;;;;;19.08;6.80;;;5.80;77.90;;;;;;5052338;28;20048;-70
2022/03/12 06:58:30;;;;;;;12.38;6.20;;;5.70;81.30;;;;;;5052022;28;20168;-70
2022/03/12 07:00:56;;;;;;;10.60;7.00;;;5.70;86.80;;;;;;5051844;28;20567;-70
2022/03/12 07:03:22;;;;;;;8.93;6.20;;;5.80;90.20;;;;;;5049829;28;20378;-70
2022/03/12 07:05:48;;;;;;;16.50;6.57;;;5.80;87.40;;;;;;5052048;28;20037;-70
2022/03/12 07:08:14;;;;;;;14.32;6.82;;;5.80;87.00;;;;;;5050394;28;20041;-70
2022/03/12 07:10:39;;;;;;;13.80;6.57;;;5.90;92.30;;;;;;5051972;28;20045;-70
2022/03/12 07:13:05;;;;;;;12.63;7.10;;;5.90;91.20;;;;;;5033317;28;20063;-70
2022/03/12 07:15:31;;;;;;;11.75;7.00;;;5.90;89.60;;;;;;5051971;28;20091;-70
2022/03/12 07:17:56;;;;;;;11.82;6.05;;;5.90;82.50;;;;;;5051604;28;20123;-70
2022/03/12 07:20:22;;;;;;;12.15;6.63;;;6.00;84.90;;;;;;5051958;28;20060;-68
2022/03/12 07:22:48;;;;;;;14.27;7.38;;;6.00;86.00;;;;;;5049886;28;20059;-69
2022/03/12 07:25:15;;;;;;;10.40;6.25;;;6.00;86.70;;;;;;5052800;28;20063;-68
2022/03/12 07:27:42;;;;;;;10.70;6.88;;;6.00;90.20;;;;;;5067358;28;20032;-70
2022/03/12 07:30:10;;;;;;;15.35;6.97;;;6.10;92.50;;;;;;5076007;28;20290;-68
2022/03/12 07:32:36;;;;;;;11.75;6.38;;;6.10;84.30;;;;;;5061056;28;20037;-69
2022/03/12 07:35:06;;;;;;;11.02;7.28;;;6.20;84.00;;;;;;5052342;28;20103;-69
2022/03/12 07:37:32;;;;;;;14.00;7.70;;;6.20;87.30;;;;;;5051494;28;20052;-69
2022/03/12 07:39:57;;;;;;;15.20;6.90;;;6.30;90.60;;;;;;5049889;28;20409;-69
2022/03/12 07:42:23;;;;;;;13.98;6.88;;;6.50;88.90;;;;;;5050438;28;20040;-69
2022/03/12 07:44:49;;;;;;;9.57;6.38;;;6.50;84.80;;;;;;5050982;28;20037;-69
2022/03/12 07:47:14;;;;;;;13.23;6.88;;;6.60;81.70;;;;;;5051308;28;20083;-69
2022/03/12 07:49:41;;;;;;;12.73;7.30;;;6.70;78.20;;;;;;5051183;28;20482;-69
2022/03/12 07:52:07;;;;;;;12.85;7.90;;;6.80;83.60;;;;;;5048933;28;20056;-68
2022/03/12 07:54:33;;;;;;;15.95;7.65;;;7.00;82.70;;;;;;5049381;28;20041;-69
2022/03/12 07:56:59;;;;;;;14.65;7.00;;;7.00;83.80;;;;;;5050802;28;20086;-69
2022/03/12 07:59:27;;;;;;;12.07;7.68;;;7.20;79.90;;;;;;5050764;28;20462;-69
2022/03/12 08:01:52;;;;;;;15.60;7.90;;;7.20;84.30;;;;;;5050171;28;20094;-69
2022/03/12 08:04:18;;;;;;;19.58;9.00;;;7.30;83.90;;;;;;5050959;28;20507;-69
2022/03/12 08:06:43;;;;;;;23.88;10.48;;;7.40;79.30;;;;;;5050948;28;20037;-70
2022/03/12 08:09:10;;;;;;;29.60;11.55;;;7.50;88.40;;;;;;5051011;28;20033;-69
2022/03/12 08:11:35;;;;;;;16.35;8.75;;;7.50;83.70;;;;;;5052848;28;20044;-68
2022/03/12 08:14:09;;;;;;;16.33;8.23;;;7.60;85.20;;;;;;5053987;28;20048;-69
2022/03/12 08:16:36;;;;;;;13.55;7.82;;;7.60;79.80;;;;;;5052561;28;20060;-69
2022/03/12 08:19:03;;;;;;;30.50;10.35;;;7.60;87.10;;;;;;5050723;28;20121;-67
2022/03/12 08:21:30;;;;;;;28.80;12.63;;;7.70;77.20;;;;;;5048911;28;20052;-68
2022/03/12 08:23:56;;;;;;;28.13;12.35;;;7.80;84.30;;;;;;5049775;28;20056;-67
2022/03/12 08:26:23;;;;;;;43.03;14.38;;;7.80;79.10;;;;;;5050329;28;20075;-68
2022/03/12 08:28:48;;;;;;;23.75;10.63;;;7.80;75.70;;;;;;5049042;28;20084;-71
2022/03/12 08:31:14;;;;;;;15.18;8.70;;;7.90;84.70;;;;;;5048886;28;20447;-72
2022/03/12 08:33:40;;;;;;;15.75;8.60;;;7.90;78.40;;;;;;5049043;28;20124;-72
2022/03/12 08:36:06;;;;;;;15.35;8.20;;;8.00;80.70;;;;;;5050145;28;20053;-72
2022/03/12 08:38:34;;;;;;;22.33;9.18;;;8.10;80.60;;;;;;5050437;28;20037;-72
2022/03/12 08:41:01;;;;;;;19.92;10.73;;;8.20;80.50;;;;;;5050508;28;20044;-72
2022/03/12 08:43:27;;;;;;;29.15;12.75;;;8.30;81.40;;;;;;5048134;28;20084;-71
2022/03/12 08:45:53;;;;;;;27.58;11.70;;;8.30;74.60;;;;;;5050459;28;20047;-72
2022/03/12 08:48:19;;;;;;;31.08;11.48;;;8.40;74.90;;;;;;5048953;28;20041;-72
2022/03/12 08:50:46;;;;;;;28.17;10.95;;;8.40;78.30;;;;;;5050279;28;20037;-71
2022/03/12 08:53:11;;;;;;;31.48;11.52;;;8.50;74.00;;;;;;5050283;28;20466;-72
2022/03/12 08:55:38;;;;;;;22.83;10.20;;;8.60;81.60;;;;;;5057921;28;20056;-72
2022/03/12 08:58:04;;;;;;;21.27;9.30;;;8.70;80.40;;;;;;5075664;28;20096;-72
2022/03/12 09:00:31;;;;;;;29.45;11.80;;;8.80;80.10;;;;;;5074580;28;20029;-72
2022/03/12 09:02:56;;;;;;;24.10;11.38;;;9.00;80.30;;;;;;5049483;28;20041;-72
2022/03/12 09:05:22;;;;;;;22.15;11.30;;;9.00;82.40;;;;;;5049438;28;20044;-70
2022/03/12 09:07:51;;;;;;;22.50;10.18;;;9.10;85.90;;;;;;5050336;28;20070;-73
2022/03/12 09:10:16;;;;;;;19.90;9.70;;;9.20;82.60;;;;;;5049095;28;20130;-71
2022/03/12 09:12:43;;;;;;;24.55;11.18;;;9.30;93.50;;;;;;5049656;28;20068;-71
2022/03/12 09:15:09;;;;;;;31.30;11.38;;;9.30;92.40;;;;;;5050058;28;20048;-72
2022/03/12 09:17:35;;;;;;;23.85;11.57;;;9.40;93.70;;;;;;5049753;28;20037;-72
2022/03/12 09:20:03;;;;;;;18.15;8.70;;;9.50;93.30;;;;;;5056166;28;20037;-70
2022/03/12 09:22:29;;;;;;;15.27;8.38;;;9.70;90.40;;;;;;5068442;28;20040;-69
2022/03/12 09:24:54;;;;;;;16.73;9.02;;;9.70;92.00;;;;;;5068118;28;20049;-68
2022/03/12 09:27:20;;;;;;;16.40;8.43;;;10.10;90.80;;;;;;5069502;28;20037;-69
2022/03/12 09:29:46;;;;;;;16.98;8.48;;;10.00;95.40;;;;;;5067863;28;20045;-70
2022/03/12 09:32:11;;;;;;;13.35;8.25;;;10.10;95.40;;;;;;5068302;28;20032;-69
2022/03/12 09:34:37;;;;;;;13.73;8.68;;;10.20;95.00;;;;;;5070452;28;20074;-70
2022/03/12 09:37:04;;;;;;;11.50;7.35;;;10.40;97.50;;;;;;5072706;28;20044;-71
2022/03/12 09:39:30;;;;;;;16.05;8.18;;;10.50;97.60;;;;;;5071235;28;20047;-69
2022/03/12 09:41:56;;;;;;;14.65;8.20;;;10.60;97.30;;;;;;5062920;28;20410;-70
2022/03/12 09:44:24;;;;;;;13.38;8.50;;;10.60;98.50;;;;;;5058698;28;20183;-72
2022/03/12 09:46:50;;;;;;;17.17;8.82;;;10.70;99.90;;;;;;5057887;28;20121;-69
2022/03/12 09:49:16;;;;;;;14.55;8.50;;;10.90;98.00;;;;;;5061677;28;20390;-67
2022/03/12 09:51:43;;;;;;;13.85;8.63;;;10.80;98.30;;;;;;5067722;28;20048;-71
2022/03/12 09:54:10;;;;;;;14.70;9.32;;;10.80;99.90;;;;;;5069643;28;20040;-69
2022/03/12 09:56:35;;;;;;;13.43;8.30;;;10.90;99.90;;;;;;5069714;28;20082;-67
2022/03/12 09:59:01;;;;;;;19.05;10.10;;;11.00;99.90;;;;;;5069365;28;20067;-67
2022/03/12 10:01:26;;;;;;;17.52;9.15;;;11.10;99.90;;;;;;5069410;28;20040;-68
2022/03/12 10:03:52;;;;;;;15.55;9.30;;;11.10;99.90;;;;;;5068773;28;20076;-67
2022/03/12 10:06:18;;;;;;;17.02;8.95;;;11.20;99.90;;;;;;5067940;28;20040;-68
2022/03/12 10:08:44;;;;;;;15.25;9.23;;;11.30;99.90;;;;;;5069335;28;20056;-66
2022/03/12 10:11:10;;;;;;;13.40;9.00;;;11.20;99.90;;;;;;5069286;28;20063;-67
2022/03/12 10:13:36;;;;;;;13.45;9.40;;;11.20;99.90;;;;;;5068605;28;20048;-66
2022/03/12 10:16:02;;;;;;;15.50;9.60;;;11.20;99.90;;;;;;5066170;28;20041;-66
2022/03/12 10:18:28;;;;;;;18.42;10.82;;;11.40;99.90;;;;;;5061578;28;20032;-68
2022/03/12 10:20:54;;;;;;;17.00;9.63;;;11.40;99.90;;;;;;5069585;28;20120;-67
2022/03/12 10:23:20;;;;;;;16.50;9.23;;;11.40;99.90;;;;;;5084619;28;20052;-66
2022/03/12 10:25:46;;;;;;;11.93;8.55;;;11.50;99.90;;;;;;5080409;28;20164;-68
2022/03/12 10:28:12;;;;;;;16.52;10.38;;;11.60;99.90;;;;;;5059692;28;20708;-68
2022/03/12 10:30:39;;;;;;;19.13;10.23;;;11.60;99.90;;;;;;5051333;28;20098;-67
2022/03/12 10:33:07;;;;;;;13.13;9.15;;;11.60;99.90;;;;;;5051664;28;20037;-69
2022/03/12 10:35:37;;;;;;;13.82;9.25;;;11.60;99.90;;;;;;5052714;28;20506;-69
2022/03/12 10:38:10;;;;;;;16.45;8.90;;;11.70;99.90;;;;;;5052620;28;20041;-69
2022/03/12 10:40:36;;;;;;;17.40;10.13;;;11.70;99.90;;;;;;5051053;28;20121;-68
2022/03/12 10:43:12;;;;;;;13.98;8.90;;;11.70;99.90;;;;;;5052071;28;20548;-69
2022/03/12 10:45:52;;;;;;;13.10;8.77;;;11.70;99.90;;;;;;5051234;28;20106;-69
2022/03/12 10:48:19;;;;;;;14.10;8.50;;;11.80;99.90;;;;;;5052395;28;20041;-69
2022/03/12 10:50:48;;;;;;;14.98;8.57;;;11.80;99.90;;;;;;5052219;28;20041;-70
2022/03/12 10:53:15;;;;;;;18.65;9.68;;;11.80;99.90;;;;;;5051301;28;20045;-70
2022/03/12 10:55:46;;;;;;;16.77;8.73;;;11.90;99.90;;;;;;5054947;28;20544;-73
2022/03/12 10:58:22;;;;;;;14.63;8.88;;;11.90;99.90;;;;;;5056800;28;20044;-74
2022/03/12 11:00:52;;;;;;;14.07;8.55;;;11.90;99.90;;;;;;5052289;28;20051;-72
2022/03/12 11:03:24;;;;;;;12.65;8.25;;;11.90;99.90;;;;;;5051572;28;20084;-73
2022/03/12 11:05:52;;;;;;;14.40;9.25;;;12.00;99.90;;;;;;5051909;28;20037;-73
2022/03/12 11:08:23;;;;;;;16.75;8.63;;;12.00;99.90;;;;;;5052133;28;20059;-73
2022/03/12 11:10:59;;;;;;;15.00;8.93;;;12.00;99.90;;;;;;5052102;28;20055;-74
2022/03/12 11:13:34;;;;;;;16.23;9.00;;;11.90;99.90;;;;;;5051684;28;20041;-70
2022/03/12 11:16:10;;;;;;;14.80;8.43;;;12.00;99.90;;;;;;5057861;28;20045;-69
2022/03/12 11:18:36;;;;;;;11.10;8.00;;;12.10;99.90;;;;;;5057954;28;20049;-69
2022/03/12 11:21:02;;;;;;;15.30;9.07;;;12.20;99.90;;;;;;5052375;28;20091;-69
2022/03/12 11:23:31;;;;;;;23.02;9.05;;;12.20;99.90;;;;;;5050861;28;20397;-69
2022/03/12 11:26:07;;;;;;;16.75;8.35;;;12.20;99.90;;;;;;5061203;28;20039;-69
2022/03/12 11:28:37;;;;;;;14.82;8.77;;;12.30;99.90;;;;;;5053496;28;20129;-69
2022/03/12 11:31:04;;;;;;;14.07;8.32;;;12.30;99.90;;;;;;5056810;28;20043;-69
2022/03/12 11:33:31;;;;;;;16.80;8.27;;;12.30;99.90;;;;;;5049707;28;20120;-69
2022/03/12 11:36:01;;;;;;;18.88;8.90;;;12.30;99.90;;;;;;5051520;28;20037;-70
2022/03/12 11:38:28;;;;;;;14.57;8.60;;;12.30;99.90;;;;;;5051215;28;20049;-70
2022/03/12 11:41:23;;;;;;;14.75;8.52;;;12.30;99.90;;;;;;5051188;28;20041;-70
2022/03/12 11:43:49;;;;;;;15.23;7.63;;;12.20;99.90;;;;;;5050701;28;20059;-70
2022/03/12 11:46:16;;;;;;;11.45;7.32;;;12.20;99.90;;;;;;5072792;28;20060;-70
2022/03/12 11:48:41;;;;;;;13.50;7.75;;;12.20;99.90;;;;;;5076734;28;20052;-70
2022/03/12 11:51:22;;;;;;;16.08;8.02;;;12.10;99.90;;;;;;5055302;28;20044;-70
2022/03/12 11:53:47;;;;;;;16.55;7.70;;;12.20;99.90;;;;;;5050832;28;20477;-70
2022/03/12 11:56:15;;;;;;;14.15;7.35;;;12.30;99.90;;;;;;5049789;28;20056;-70
2022/03/12 11:58:40;;;;;;;10.30;6.85;;;12.40;99.90;;;;;;5051205;28;20056;-70
2022/03/12 12:01:06;;;;;;;12.93;7.63;;;12.50;99.90;;;;;;5046888;28;20105;-70
2022/03/12 12:03:32;;;;;;;11.88;6.78;;;12.70;99.90;;;;;;5050284;28;20041;-70
2022/03/12 12:05:57;;;;;;;14.75;7.88;;;12.80;99.90;;;;;;5051529;28;20051;-70
2022/03/12 12:08:24;;;;;;;11.90;7.15;;;12.90;99.90;;;;;;5051518;28;20041;-70
2022/03/12 12:11:01;;;;;;;12.10;7.40;;;12.90;99.90;;;;;;5051145;28;20041;-70
2022/03/12 12:13:27;;;;;;;14.18;7.32;;;12.90;99.90;;;;;;5050254;28;20052;-70
2022/03/12 12:15:52;;;;;;;15.60;8.18;;;12.90;99.90;;;;;;5061820;28;20044;-70
2022/03/12 12:18:18;;;;;;;13.32;6.75;;;12.90;99.90;;;;;;5077626;28;20138;-70
2022/03/12 12:20:44;;;;;;;11.40;7.32;;;12.90;99.90;;;;;;5072109;28;20135;-70
2022/03/12 12:23:18;;;;;;;13.75;7.72;;;13.00;99.90;;;;;;5085364;28;20040;-70
2022/03/12 12:25:45;;;;;;;11.23;7.35;;;13.10;99.90;;;;;;5089931;28;20051;-70
2022/03/12 12:28:22;;;;;;;15.98;7.53;;;13.10;99.90;;;;;;5096957;28;20109;-70
2022/03/12 12:30:50;;;;;;;11.45;7.40;;;13.10;99.90;;;;;;5093438;28;20039;-70
2022/03/12 12:33:24;;;;;;;10.57;6.57;;;13.10;99.90;;;;;;5090370;28;20040;-70
2022/03/12 12:35:51;;;;;;;15.05;7.47;;;13.00;99.90;;;;;;5091987;28;20132;-70
2022/03/12 12:38:21;;;;;;;12.30;7.30;;;13.00;99.90;;;;;;5091302;28;20050;-70
2022/03/12 12:40:49;;;;;;;11.98;7.63;;;13.00;99.90;;;;;;5090147;28;20055;-70
2022/03/12 12:43:21;;;;;;;13.77;7.50;;;13.00;99.90;;;;;;5090732;28;20556;-70
2022/03/12 12:45:53;;;;;;;9.93;7.20;;;13.10;99.90;;;;;;5091706;28;20054;-70